Jamestown, KY

5:25 PM CDT on August 04, 2015 (GMT -0500)
LazyDaze | | Change Station
CLOSE
Current Station
Personal Weather Station
Location: Jamestown, KY
Elevation: 978 ft
Nearby Weather Stations

Elev 978 ft 36.94 °N, 85.20 °W | Updated 18 seconds ago

Partly Cloudy
Partly Cloudy
76.8 °F
Feels Like 78 °F
N
1.3
Wind Variable Wind from East
Gusts 2.5 mph

Today
High -- | Low -- °F
--% Chance of Precip.
Yesterday
High -- | Low -- °F
Precip. -- in
5:47 AM 7:44 PM
Waning Gibbous, 74% visible
Pressure 30.01 in
Visibility 10.0 miles
Clouds Scattered Clouds 3400 ft
Scattered Clouds 4800 ft
Scattered Clouds 6500 ft
Heat Index 78 °F
Dew Point 72 °F
Humidity 84%
Rainfall 0.00 in
Snow Depth Not available.
UV 1.0 out of 12
Pollen 4.80 out of 12
Air Quality Not available.
Flu Activity Not available.
METAR KSME 042020Z AUTO 27007KT 10SM -RA SCT034 SCT048 SCT065 29/21 A3001 RMK AO2 LTG DSNT N AND NW

More Conditions Fewer Conditions

Pressure 30.01 in
Visibility 10.0 miles
Clouds Scattered Clouds 3400 ft
Scattered Clouds 4800 ft
Scattered Clouds 6500 ft
Heat Index 78 °F
Dew Point 72 °F
Humidity 84%
Rainfall 0.00 in
Snow Depth Not available.
UV 1.0 out of 12
Pollen 4.80 out of 12
Air Quality Not available.
Flu Activity Not available.
METAR KSME 042020Z AUTO 27007KT 10SM -RA SCT034 SCT048 SCT065 29/21 A3001 RMK AO2 LTG DSNT N AND NW

More Conditions Fewer Conditions

10-Day Weather Forecast

×

Almanac

Astronomy

Aug. 04, 2015 Rise Set
Actual Time
Civil Twilight
Nautical Twilight
Astronomical Twilight
Moon
Length of Visible Light
Length of Day
Tomorrow will be .
, % of the Moon is Illuminated

Today's Extremes

State Highs State Lows

Community

WunderPhotos

Upload Photos

1,844,007 photos uploaded!

WunderBlogs® & News

Nearby

Air Quality

  Air Quality AQ Index Pollutant
Not available.

Snow Depth

Station Depth Elevation

Earthquake Activity

City Distance Mag. Time & Date
Minimum magnitude displayed is 2.5.

Coastal Water Temperatures

Place Temperature

Stations

Nearby Weather Stations

Station Location Temp. Windchill Dew Point Humidity Wind Precip. Elev Updated Type